createdAt,value
2022-12-23T00:00:30.405Z,10.34
2022-12-23T00:01:30.448Z,10.34
2022-12-23T00:02:30.641Z,10.35
2022-12-23T00:03:30.591Z,10.34
2022-12-23T00:04:30.368Z,10.35
2022-12-23T00:05:37.369Z,10.31
2022-12-23T00:06:31.330Z,10.31
2022-12-23T00:07:30.319Z,10.31
2022-12-23T00:08:30.301Z,10.31
2022-12-23T00:09:30.286Z,10.28
2022-12-23T00:10:30.267Z,10.25
2022-12-23T00:11:30.252Z,10.28
2022-12-23T00:12:30.258Z,10.31
2022-12-23T00:13:30.246Z,10.31
2022-12-23T00:14:30.230Z,10.35
2022-12-23T00:15:30.207Z,10.30
2022-12-23T00:16:30.250Z,10.26
2022-12-23T00:17:30.193Z,10.30
2022-12-23T00:18:30.157Z,10.28
2022-12-23T00:19:30.144Z,10.30
2022-12-23T00:20:30.160Z,10.26
2022-12-23T00:21:30.136Z,10.28
2022-12-23T00:22:30.139Z,10.23
2022-12-23T00:23:30.097Z,10.30
2022-12-23T00:24:30.083Z,10.25
2022-12-23T00:25:30.069Z,10.28
2022-12-23T00:26:30.060Z,10.30
2022-12-23T00:27:35.712Z,10.30
2022-12-23T00:28:30.040Z,10.31
2022-12-23T00:29:30.020Z,10.25
2022-12-23T00:30:30.003Z,10.26
2022-12-23T00:31:30.046Z,10.31
2022-12-23T00:32:30.002Z,10.28
2022-12-23T00:33:29.965Z,10.31
2022-12-23T00:34:29.955Z,10.33
2022-12-23T00:35:29.932Z,10.33
2022-12-23T00:36:30.150Z,10.42
2022-12-23T00:37:29.923Z,10.41
2022-12-23T00:38:29.900Z,10.41
2022-12-23T00:39:29.883Z,10.44
2022-12-23T00:40:29.879Z,10.48
2022-12-23T00:41:29.856Z,10.38
2022-12-23T00:42:29.866Z,10.34
2022-12-23T00:43:29.828Z,10.37
2022-12-23T00:44:29.812Z,10.46
2022-12-23T00:45:29.838Z,10.48
2022-12-23T00:46:29.895Z,10.38
2022-12-23T00:47:29.795Z,10.37
2022-12-23T00:48:29.760Z,10.31
2022-12-23T00:49:29.763Z,10.37
2022-12-23T00:50:29.743Z,10.41
2022-12-23T00:51:29.730Z,10.38
2022-12-23T00:52:29.763Z,10.34
2022-12-23T00:53:29.698Z,10.30
2022-12-23T00:54:29.683Z,10.30
2022-12-23T00:55:29.687Z,10.23
2022-12-23T00:56:29.654Z,10.30
2022-12-23T00:57:29.658Z,10.23
2022-12-23T00:58:29.631Z,10.20
2022-12-23T00:59:29.619Z,10.25
2022-12-23T01:00:29.609Z,10.23
2022-12-23T01:01:29.740Z,10.26
2022-12-23T01:02:29.743Z,10.28
2022-12-23T01:03:29.650Z,10.26
2022-12-23T01:04:29.546Z,10.26
2022-12-23T01:05:29.621Z,10.25
2022-12-23T01:06:29.518Z,10.25
2022-12-23T01:07:29.523Z,10.23
2022-12-23T01:08:29.523Z,10.23
2022-12-23T01:09:29.498Z,10.23
2022-12-23T01:10:29.467Z,10.23
2022-12-23T01:11:29.452Z,10.23
2022-12-23T01:12:29.457Z,10.20
2022-12-23T01:13:29.432Z,10.23
2022-12-23T01:14:29.419Z,10.22
2022-12-23T01:15:29.433Z,10.26
2022-12-23T01:16:29.424Z,10.26
2022-12-23T01:17:29.393Z,10.28
2022-12-23T01:18:29.359Z,10.28
2022-12-23T01:19:29.347Z,10.25
2022-12-23T01:20:29.341Z,10.31
2022-12-23T01:21:29.327Z,10.35
2022-12-23T01:22:29.313Z,10.35
2022-12-23T01:23:29.311Z,10.38
2022-12-23T01:24:29.310Z,10.42
2022-12-23T01:25:29.275Z,10.46
2022-12-23T01:26:29.256Z,10.51
2022-12-23T01:27:29.246Z,10.48
2022-12-23T01:28:29.260Z,10.49
2022-12-23T01:29:29.218Z,10.54
2022-12-23T01:30:29.204Z,10.54
2022-12-23T01:31:29.262Z,10.53
2022-12-23T01:32:29.184Z,10.56
2022-12-23T01:33:29.206Z,10.53
2022-12-23T01:34:36.078Z,10.53
2022-12-23T01:35:29.186Z,10.56
2022-12-23T01:36:29.134Z,10.56
2022-12-23T01:37:29.116Z,10.57
2022-12-23T01:38:29.122Z,10.57
2022-12-23T01:39:29.091Z,10.54
2022-12-23T01:40:29.102Z,10.56
2022-12-23T01:41:29.080Z,10.56
2022-12-23T01:42:29.046Z,10.53
2022-12-23T01:43:29.049Z,10.53
2022-12-23T01:44:29.023Z,10.49
2022-12-23T01:45:29.111Z,10.56
2022-12-23T01:46:29.092Z,10.56
2022-12-23T01:47:28.985Z,10.53
2022-12-23T01:48:29.000Z,10.51
2022-12-23T01:49:28.970Z,10.51
2022-12-23T01:50:28.956Z,10.51
2022-12-23T01:51:28.937Z,10.53
2022-12-23T01:52:28.931Z,10.51
2022-12-23T01:53:28.949Z,10.53
2022-12-23T01:54:28.891Z,10.54
2022-12-23T01:55:28.875Z,10.49
2022-12-23T01:56:28.883Z,10.54
2022-12-23T01:57:28.852Z,10.56
2022-12-23T01:58:28.852Z,10.54
2022-12-23T01:59:28.832Z,10.51
2022-12-23T02:00:28.813Z,10.49
2022-12-23T02:01:28.947Z,10.51
2022-12-23T02:02:28.876Z,10.46
2022-12-23T02:03:28.849Z,10.46
2022-12-23T02:04:28.765Z,10.48
2022-12-23T02:05:28.756Z,10.49
2022-12-23T02:06:28.735Z,10.54
2022-12-23T02:07:28.721Z,10.46
2022-12-23T02:08:28.733Z,10.51
2022-12-23T02:09:28.699Z,10.51
2022-12-23T02:10:28.676Z,10.42
2022-12-23T02:11:28.675Z,10.37
2022-12-23T02:12:28.723Z,10.38
2022-12-23T02:13:28.671Z,10.35
2022-12-23T02:14:28.625Z,10.37
2022-12-23T02:15:28.610Z,10.26
2022-12-23T02:16:28.658Z,10.26
2022-12-23T02:17:28.586Z,10.28
2022-12-23T02:18:28.568Z,10.26
2022-12-23T02:19:28.573Z,10.30
2022-12-23T02:20:28.543Z,10.20
2022-12-23T02:21:28.535Z,10.30
2022-12-23T02:22:28.518Z,10.25
2022-12-23T02:23:28.508Z,10.31
2022-12-23T02:24:28.505Z,10.26
2022-12-23T02:25:28.481Z,10.31
2022-12-23T02:26:28.465Z,10.33
2022-12-23T02:27:28.449Z,10.31
2022-12-23T02:28:28.462Z,10.31
2022-12-23T02:29:28.456Z,10.23
2022-12-23T02:30:28.430Z,10.22
2022-12-23T02:31:28.512Z,10.28
2022-12-23T02:32:28.378Z,10.22
2022-12-23T02:33:28.374Z,10.22
2022-12-23T02:34:28.372Z,10.26
2022-12-23T02:35:28.343Z,10.28
2022-12-23T02:36:28.329Z,10.30
2022-12-23T02:37:28.322Z,10.30
2022-12-23T02:38:28.301Z,10.28
2022-12-23T02:39:28.309Z,10.23
2022-12-23T02:40:28.279Z,10.23
2022-12-23T02:41:28.270Z,10.23
2022-12-23T02:42:28.247Z,10.17
2022-12-23T02:43:28.251Z,10.16
2022-12-23T02:44:28.269Z,10.13
2022-12-23T02:45:28.211Z,10.16
2022-12-23T02:46:28.261Z,10.16
2022-12-23T02:47:28.185Z,10.12
2022-12-23T02:48:28.174Z,10.16
2022-12-23T02:49:28.177Z,10.16
2022-12-23T02:50:28.152Z,10.15
2022-12-23T02:51:28.142Z,10.13
2022-12-23T02:52:28.116Z,10.17
2022-12-23T02:53:28.103Z,10.15
2022-12-23T02:54:28.104Z,10.15
2022-12-23T02:55:28.082Z,10.19
2022-12-23T02:56:28.065Z,10.15
2022-12-23T02:57:28.054Z,10.13
2022-12-23T02:58:28.040Z,10.16
2022-12-23T02:59:28.049Z,10.19
2022-12-23T03:00:28.028Z,10.16
2022-12-23T03:01:28.140Z,10.25
2022-12-23T03:02:28.163Z,10.28
2022-12-23T03:03:28.026Z,10.31
2022-12-23T03:04:27.974Z,10.30
2022-12-23T03:05:27.950Z,10.28
2022-12-23T03:06:27.936Z,10.28
2022-12-23T03:07:27.917Z,10.33
2022-12-23T03:08:27.919Z,10.23
2022-12-23T03:09:27.903Z,10.15
2022-12-23T03:10:27.873Z,10.02
2022-12-23T03:11:27.872Z,9.98
2022-12-23T03:12:27.894Z,9.97
2022-12-23T03:13:27.848Z,9.94
2022-12-23T03:14:27.834Z,9.92
2022-12-23T03:15:27.862Z,9.97
2022-12-23T03:16:27.918Z,9.92
2022-12-23T03:17:27.792Z,9.91
2022-12-23T03:18:27.771Z,9.94
2022-12-23T03:19:27.773Z,9.92
2022-12-23T03:20:27.759Z,9.95
2022-12-23T03:21:27.736Z,10.02
2022-12-23T03:22:27.730Z,10.02
2022-12-23T03:23:27.712Z,10.05
2022-12-23T03:24:27.709Z,9.99
2022-12-23T03:25:27.688Z,10.01
2022-12-23T03:26:27.675Z,9.99
2022-12-23T03:27:27.661Z,9.99
2022-12-23T03:28:27.641Z,9.98
2022-12-23T03:29:27.645Z,9.99
2022-12-23T03:30:27.616Z,9.94
2022-12-23T03:31:27.655Z,9.92
2022-12-23T03:32:27.616Z,9.95
2022-12-23T03:33:27.577Z,9.89
2022-12-23T03:34:27.575Z,9.94
2022-12-23T03:35:27.547Z,9.91
2022-12-23T03:36:27.535Z,9.89
2022-12-23T03:37:27.524Z,9.92
2022-12-23T03:38:27.504Z,9.92
2022-12-23T03:39:27.490Z,9.95
2022-12-23T03:40:27.505Z,9.92
2022-12-23T03:41:27.471Z,9.92
2022-12-23T03:42:27.465Z,9.91
2022-12-23T03:43:27.473Z,9.94
2022-12-23T03:44:27.426Z,9.97
2022-12-23T03:45:40.067Z,9.97
2022-12-23T03:46:28.455Z,9.98
2022-12-23T03:47:27.390Z,9.97
2022-12-23T03:48:27.390Z,9.92
2022-12-23T03:49:27.366Z,9.91
2022-12-23T03:50:27.365Z,9.92
2022-12-23T03:51:27.340Z,9.97
2022-12-23T03:52:27.326Z,9.94
2022-12-23T03:53:27.308Z,9.95
2022-12-23T03:54:27.300Z,9.95
2022-12-23T03:55:27.303Z,9.94
2022-12-23T03:56:27.273Z,9.95
2022-12-23T03:57:27.265Z,9.92
2022-12-23T03:58:27.265Z,9.92
2022-12-23T03:59:27.237Z,9.92
2022-12-23T04:00:27.236Z,9.89
2022-12-23T04:01:27.378Z,9.91
2022-12-23T04:02:27.367Z,9.91
2022-12-23T04:03:27.203Z,9.94
2022-12-23T04:04:27.181Z,9.92
2022-12-23T04:05:27.165Z,9.95
2022-12-23T04:06:27.135Z,9.89
2022-12-23T04:07:27.131Z,9.92
2022-12-23T04:08:27.112Z,9.89
2022-12-23T04:09:27.107Z,9.92
2022-12-23T04:10:27.093Z,9.91
2022-12-23T04:11:27.074Z,9.94
2022-12-23T04:12:27.059Z,9.94
2022-12-23T04:13:27.042Z,9.95
2022-12-23T04:14:27.037Z,9.97
2022-12-23T04:15:27.036Z,9.95
2022-12-23T04:16:27.057Z,9.92
2022-12-23T04:17:26.989Z,9.91
2022-12-23T04:18:26.982Z,9.91
2022-12-23T04:19:26.975Z,9.92
2022-12-23T04:20:26.999Z,9.97
2022-12-23T04:21:26.943Z,9.95
2022-12-23T04:22:26.919Z,9.99
2022-12-23T04:23:26.919Z,9.97
2022-12-23T04:24:26.892Z,9.99
2022-12-23T04:25:26.904Z,9.98
2022-12-23T04:26:26.866Z,9.99
2022-12-23T04:27:26.851Z,9.97
2022-12-23T04:28:26.883Z,9.98
2022-12-23T04:29:26.826Z,9.95
2022-12-23T04:30:33.530Z,9.95
2022-12-23T04:31:26.829Z,9.95
2022-12-23T04:32:26.782Z,10.01
2022-12-23T04:33:26.775Z,9.98
2022-12-23T04:34:26.761Z,9.97
2022-12-23T04:35:26.763Z,9.98
2022-12-23T04:36:26.755Z,9.98
2022-12-23T04:37:26.725Z,10.04
2022-12-23T04:38:26.709Z,10.01
2022-12-23T04:39:26.691Z,10.07
2022-12-23T04:40:26.710Z,9.99
2022-12-23T04:41:26.671Z,10.07
2022-12-23T04:42:26.656Z,10.02
2022-12-23T04:43:26.645Z,9.99
2022-12-23T04:44:26.632Z,10.04
2022-12-23T04:45:26.698Z,9.99
2022-12-23T04:46:26.706Z,9.97
2022-12-23T04:47:26.598Z,9.98
2022-12-23T04:48:26.581Z,9.98
2022-12-23T04:49:26.587Z,9.95
2022-12-23T04:50:26.577Z,9.91
2022-12-23T04:51:26.534Z,9.91
2022-12-23T04:52:26.546Z,9.91
2022-12-23T04:53:26.512Z,9.94
2022-12-23T04:54:26.496Z,9.91
2022-12-23T04:55:26.489Z,9.86
2022-12-23T04:56:26.492Z,9.86
2022-12-23T04:57:26.461Z,9.87
2022-12-23T04:58:26.444Z,9.84
2022-12-23T04:59:26.446Z,9.83
2022-12-23T05:00:26.421Z,9.80
2022-12-23T05:01:26.565Z,9.82
2022-12-23T05:02:26.510Z,9.82
2022-12-23T05:03:26.432Z,9.79
2022-12-23T05:04:26.393Z,9.83
2022-12-23T05:05:26.355Z,9.83
2022-12-23T05:06:26.353Z,9.72
2022-12-23T05:07:26.336Z,9.74
2022-12-23T05:08:26.480Z,9.66
2022-12-23T05:09:26.307Z,9.64
2022-12-23T05:10:26.289Z,9.62
2022-12-23T05:11:26.299Z,9.61
2022-12-23T05:12:26.276Z,9.64
2022-12-23T05:13:26.251Z,9.58
2022-12-23T05:14:26.248Z,9.55
2022-12-23T05:15:26.220Z,9.54
2022-12-23T05:16:26.280Z,9.50
2022-12-23T05:17:26.209Z,9.55
2022-12-23T05:18:26.188Z,9.55
2022-12-23T05:19:26.170Z,9.50
2022-12-23T05:20:26.164Z,9.47
2022-12-23T05:21:26.164Z,9.48
2022-12-23T05:22:26.147Z,9.46
2022-12-23T05:23:26.121Z,9.47
2022-12-23T05:24:26.153Z,9.44
2022-12-23T05:25:26.114Z,9.46
2022-12-23T05:26:26.105Z,9.46
2022-12-23T05:27:26.081Z,9.46
2022-12-23T05:28:26.068Z,9.50
2022-12-23T05:29:26.052Z,9.48
2022-12-23T05:30:26.046Z,9.54
2022-12-23T05:31:26.093Z,9.55
2022-12-23T05:32:26.010Z,9.58
2022-12-23T05:33:26.078Z,9.62
2022-12-23T05:34:25.982Z,9.50
2022-12-23T05:35:25.991Z,9.50
2022-12-23T05:36:25.972Z,9.46
2022-12-23T05:37:25.958Z,9.44
2022-12-23T05:38:25.940Z,9.43
2022-12-23T05:39:25.915Z,9.43
2022-12-23T05:40:28.698Z,9.41
2022-12-23T05:41:26.913Z,9.39
2022-12-23T05:42:25.893Z,9.41
2022-12-23T05:43:25.875Z,9.43
2022-12-23T05:44:25.854Z,9.43
2022-12-23T05:45:26.006Z,9.43
2022-12-23T05:46:26.972Z,9.41
2022-12-23T05:47:25.818Z,9.44
2022-12-23T05:48:25.801Z,9.43
2022-12-23T05:49:25.796Z,9.40
2022-12-23T05:50:25.781Z,9.41
2022-12-23T05:51:25.793Z,9.46
2022-12-23T05:52:25.772Z,9.43
2022-12-23T05:53:25.738Z,9.47
2022-12-23T05:54:25.726Z,9.43
2022-12-23T05:55:25.717Z,9.41
2022-12-23T05:56:25.823Z,9.47
2022-12-23T05:57:25.695Z,9.47
2022-12-23T05:58:25.685Z,9.47
2022-12-23T05:59:30.734Z,9.47
2022-12-23T06:00:26.652Z,9.46
2022-12-23T06:01:25.670Z,9.44
2022-12-23T06:02:25.810Z,9.41
2022-12-23T06:03:25.997Z,9.44
2022-12-23T06:04:25.650Z,9.44
2022-12-23T06:05:25.586Z,9.41
2022-12-23T06:06:25.575Z,9.37
2022-12-23T06:07:25.586Z,9.41
2022-12-23T06:08:25.550Z,9.40
2022-12-23T06:09:25.541Z,9.40
2022-12-23T06:10:25.530Z,9.39
2022-12-23T06:11:25.513Z,9.40
2022-12-23T06:12:25.542Z,9.39
2022-12-23T06:13:25.502Z,9.37
2022-12-23T06:14:29.071Z,9.37
2022-12-23T06:15:25.473Z,9.41
2022-12-23T06:16:25.550Z,9.44
2022-12-23T06:17:25.449Z,9.39
2022-12-23T06:18:25.449Z,9.40
2022-12-23T06:19:25.409Z,9.39
2022-12-23T06:20:25.396Z,9.40
2022-12-23T06:21:25.394Z,9.39
2022-12-23T06:22:25.393Z,9.36
2022-12-23T06:23:25.379Z,9.36
2022-12-23T06:24:25.393Z,9.36
2022-12-23T06:25:25.333Z,9.32
2022-12-23T06:26:25.363Z,9.36
2022-12-23T06:27:25.348Z,9.40
2022-12-23T06:28:25.336Z,9.40
2022-12-23T06:29:25.291Z,9.41
2022-12-23T06:30:25.306Z,9.40
2022-12-23T06:31:25.322Z,9.39
2022-12-23T06:32:25.268Z,9.43
2022-12-23T06:33:25.241Z,9.48
2022-12-23T06:34:25.222Z,9.44
2022-12-23T06:35:25.215Z,9.46
2022-12-23T06:36:25.202Z,9.43
2022-12-23T06:37:25.202Z,9.46
2022-12-23T06:38:25.173Z,9.47
2022-12-23T06:39:25.161Z,9.44
2022-12-23T06:40:25.144Z,9.44
2022-12-23T06:41:25.129Z,9.47
2022-12-23T06:42:25.138Z,9.46
2022-12-23T06:43:25.111Z,9.44
2022-12-23T06:44:25.114Z,9.48
2022-12-23T06:45:25.095Z,9.46
2022-12-23T06:46:25.118Z,9.46
2022-12-23T06:47:25.065Z,9.50
2022-12-23T06:48:25.043Z,9.50
2022-12-23T06:49:25.032Z,9.46
2022-12-23T06:50:25.019Z,9.48
2022-12-23T06:51:25.013Z,9.47
2022-12-23T06:52:25.007Z,9.46
2022-12-23T06:53:24.985Z,9.44
2022-12-23T06:54:24.972Z,9.43
2022-12-23T06:55:24.950Z,9.43
2022-12-23T06:56:24.949Z,9.39
2022-12-23T06:57:24.943Z,9.36
2022-12-23T06:58:24.913Z,9.36
2022-12-23T06:59:24.912Z,9.32
2022-12-23T07:00:24.980Z,9.28
2022-12-23T07:01:24.973Z,9.29
2022-12-23T07:02:24.974Z,9.26
2022-12-23T07:03:24.947Z,9.31
2022-12-23T07:04:24.838Z,9.34
2022-12-23T07:05:24.842Z,9.34
2022-12-23T07:06:24.813Z,9.34
2022-12-23T07:07:24.797Z,9.36
2022-12-23T07:08:24.811Z,9.39
2022-12-23T07:09:24.774Z,9.41
2022-12-23T07:10:24.770Z,9.41
2022-12-23T07:11:24.754Z,9.41
2022-12-23T07:12:24.735Z,9.40
2022-12-23T07:13:24.734Z,9.40
2022-12-23T07:14:24.710Z,9.41
2022-12-23T07:15:24.695Z,9.43
2022-12-23T07:16:24.731Z,9.41
2022-12-23T07:17:24.678Z,9.39
2022-12-23T07:18:24.682Z,9.37
2022-12-23T07:19:24.643Z,9.39
2022-12-23T07:20:24.639Z,9.39
2022-12-23T07:21:29.092Z,9.41
2022-12-23T07:22:25.611Z,9.41
2022-12-23T07:23:24.627Z,9.44
2022-12-23T07:24:24.586Z,9.47
2022-12-23T07:25:24.575Z,9.48
2022-12-23T07:26:24.564Z,9.50
2022-12-23T07:27:24.544Z,9.54
2022-12-23T07:28:24.555Z,9.56
2022-12-23T07:29:24.521Z,9.51
2022-12-23T07:30:24.529Z,9.51
2022-12-23T07:31:24.531Z,9.55
2022-12-23T07:32:24.506Z,9.54
2022-12-23T07:33:24.486Z,9.54
2022-12-23T07:34:24.458Z,9.54
2022-12-23T07:35:24.443Z,9.47
2022-12-23T07:36:24.434Z,9.56
2022-12-23T07:37:24.419Z,9.51
2022-12-23T07:38:24.423Z,9.51
2022-12-23T07:39:24.393Z,9.51
2022-12-23T07:40:24.376Z,9.54
2022-12-23T07:41:24.368Z,9.51
2022-12-23T07:42:44.286Z,9.54
2022-12-23T07:43:25.364Z,9.59
2022-12-23T07:44:24.340Z,9.65
2022-12-23T07:45:24.336Z,9.68
2022-12-23T07:46:24.371Z,9.72
2022-12-23T07:47:24.283Z,9.74
2022-12-23T07:48:24.347Z,9.74
2022-12-23T07:49:24.264Z,9.76
2022-12-23T07:50:24.255Z,9.79
2022-12-23T07:51:24.238Z,9.80
2022-12-23T07:52:24.224Z,9.82
2022-12-23T07:53:24.222Z,9.82
2022-12-23T07:54:24.201Z,9.87
2022-12-23T07:55:24.189Z,9.89
2022-12-23T07:56:24.181Z,9.89
2022-12-23T07:57:24.163Z,9.92
2022-12-23T07:58:24.175Z,9.99
2022-12-23T07:59:24.134Z,10.01
2022-12-23T08:00:24.136Z,10.05
2022-12-23T08:01:24.169Z,10.13
2022-12-23T08:02:24.398Z,10.17
2022-12-23T08:03:24.203Z,10.19
2022-12-23T08:04:24.159Z,10.22
2022-12-23T08:05:24.179Z,10.30
2022-12-23T08:06:24.049Z,10.33
2022-12-23T08:07:24.031Z,10.31
2022-12-23T08:08:24.031Z,10.28
2022-12-23T08:09:24.057Z,10.30
2022-12-23T08:10:24.007Z,10.35
2022-12-23T08:11:23.977Z,10.35
2022-12-23T08:12:23.972Z,10.31
2022-12-23T08:13:23.955Z,10.34
2022-12-23T08:14:23.956Z,10.35
2022-12-23T08:15:23.927Z,10.33
2022-12-23T08:16:24.008Z,10.22
2022-12-23T08:17:24.061Z,10.28
2022-12-23T08:18:23.896Z,10.30
2022-12-23T08:19:23.895Z,10.20
2022-12-23T08:20:23.892Z,10.23
2022-12-23T08:21:23.854Z,10.19
2022-12-23T08:22:23.837Z,10.26
2022-12-23T08:23:25.097Z,10.33
2022-12-23T08:24:23.826Z,10.41
2022-12-23T08:25:23.793Z,10.49
2022-12-23T08:26:23.780Z,10.59
2022-12-23T08:27:23.765Z,10.75
2022-12-23T08:28:23.776Z,10.90
2022-12-23T08:29:23.764Z,10.96
2022-12-23T08:30:23.736Z,11.08
2022-12-23T08:31:23.859Z,11.18
2022-12-23T08:32:23.701Z,11.19
2022-12-23T08:33:23.693Z,11.22
2022-12-23T08:34:23.697Z,11.15
2022-12-23T08:35:23.669Z,11.19
2022-12-23T08:36:23.917Z,11.23
2022-12-23T08:37:23.639Z,11.25
2022-12-23T08:38:23.618Z,11.19
2022-12-23T08:39:23.640Z,11.11
2022-12-23T08:40:23.596Z,11.11
2022-12-23T08:41:23.582Z,11.10
2022-12-23T08:42:23.570Z,11.14
2022-12-23T08:43:23.549Z,11.15
2022-12-23T08:44:23.570Z,11.11
2022-12-23T08:45:23.532Z,11.10
2022-12-23T08:46:23.672Z,11.12
2022-12-23T08:47:23.521Z,11.08
2022-12-23T08:48:23.491Z,11.12
2022-12-23T08:49:23.493Z,11.12
2022-12-23T08:50:23.518Z,11.12
2022-12-23T08:51:23.453Z,11.14
2022-12-23T08:52:23.531Z,11.18
2022-12-23T08:53:23.424Z,11.18
2022-12-23T08:54:23.420Z,11.17
2022-12-23T08:55:23.395Z,11.18
2022-12-23T08:56:23.392Z,11.11
2022-12-23T08:57:23.369Z,11.02
2022-12-23T08:58:23.357Z,10.78
2022-12-23T08:59:23.369Z,10.74
2022-12-23T09:00:23.421Z,10.78
2022-12-23T09:01:23.414Z,10.78
2022-12-23T09:02:23.515Z,10.86
2022-12-23T09:03:23.406Z,10.99
2022-12-23T09:04:23.303Z,11.05
2022-12-23T09:05:23.266Z,11.10
2022-12-23T09:06:28.572Z,11.15
2022-12-23T09:07:24.244Z,11.18
2022-12-23T09:08:23.251Z,11.22
2022-12-23T09:09:23.241Z,11.27
2022-12-23T09:10:23.320Z,11.23
2022-12-23T09:11:23.184Z,11.32
2022-12-23T09:12:23.179Z,11.23
2022-12-23T09:13:32.806Z,11.29
2022-12-23T09:14:23.165Z,11.19
2022-12-23T09:15:23.136Z,11.10
2022-12-23T09:16:23.215Z,11.04
2022-12-23T09:17:23.104Z,11.00
2022-12-23T09:18:23.094Z,10.89
2022-12-23T09:19:23.104Z,10.84
2022-12-23T09:20:23.063Z,10.82
2022-12-23T09:21:23.052Z,10.79
2022-12-23T09:22:23.043Z,10.74
2022-12-23T09:23:23.026Z,10.79
2022-12-23T09:24:23.078Z,10.81
2022-12-23T09:25:23.007Z,10.79
2022-12-23T09:26:22.988Z,10.74
2022-12-23T09:27:22.974Z,10.74
2022-12-23T09:28:22.959Z,10.64
2022-12-23T09:29:22.965Z,10.64
2022-12-23T09:30:22.931Z,10.61
2022-12-23T09:31:23.130Z,10.63
2022-12-23T09:32:22.906Z,10.64
2022-12-23T09:33:22.892Z,10.63
2022-12-23T09:34:22.893Z,10.63
2022-12-23T09:35:22.868Z,10.67
2022-12-23T09:36:22.852Z,10.67
2022-12-23T09:37:22.841Z,10.63
2022-12-23T09:38:22.825Z,10.71
2022-12-23T09:39:22.832Z,10.75
2022-12-23T09:40:22.821Z,10.79
2022-12-23T09:41:22.798Z,10.84
2022-12-23T09:42:22.772Z,10.89
2022-12-23T09:43:22.761Z,10.92
2022-12-23T09:44:22.746Z,10.97
2022-12-23T09:45:22.751Z,10.99
2022-12-23T09:46:22.801Z,11.02
2022-12-23T09:47:22.713Z,11.05
2022-12-23T09:48:22.697Z,11.12
2022-12-23T09:49:22.685Z,11.07
2022-12-23T09:50:22.685Z,11.10
2022-12-23T09:51:22.653Z,11.05
2022-12-23T09:52:22.644Z,10.97
2022-12-23T09:53:22.641Z,10.99
2022-12-23T09:54:22.694Z,10.94
2022-12-23T09:55:22.623Z,10.92
2022-12-23T09:56:22.627Z,10.89
2022-12-23T09:57:22.584Z,10.89
2022-12-23T09:58:22.563Z,10.89
2022-12-23T09:59:22.562Z,10.90
2022-12-23T10:00:22.556Z,10.94
2022-12-23T10:01:22.556Z,10.93
2022-12-23T10:02:22.734Z,10.92
2022-12-23T10:03:22.655Z,10.94
2022-12-23T10:04:22.583Z,10.92
2022-12-23T10:05:22.505Z,11.02
2022-12-23T10:06:22.461Z,11.04
2022-12-23T10:07:22.464Z,11.05
2022-12-23T10:08:22.445Z,11.10
2022-12-23T10:09:22.422Z,11.11
2022-12-23T10:10:22.426Z,11.10
2022-12-23T10:11:22.399Z,11.15
2022-12-23T10:12:28.089Z,11.17
2022-12-23T10:13:23.371Z,11.10
2022-12-23T10:14:22.359Z,11.10
2022-12-23T10:15:22.368Z,11.11
2022-12-23T10:16:22.402Z,11.17
2022-12-23T10:17:22.321Z,11.18
2022-12-23T10:18:22.303Z,11.15
2022-12-23T10:19:22.295Z,11.14
2022-12-23T10:20:22.297Z,11.11
2022-12-23T10:21:22.273Z,11.08
2022-12-23T10:22:22.251Z,11.07
2022-12-23T10:23:22.237Z,11.11
2022-12-23T10:24:22.226Z,11.14
2022-12-23T10:25:22.231Z,11.12
2022-12-23T10:26:22.195Z,11.11
2022-12-23T10:27:22.190Z,11.07
2022-12-23T10:28:22.193Z,10.97
2022-12-23T10:29:22.162Z,11.02
2022-12-23T10:31:39.677Z,11.07
2022-12-23T10:32:23.257Z,11.04
2022-12-23T10:33:22.143Z,11.02
2022-12-23T10:34:22.098Z,11.00
2022-12-23T10:35:22.105Z,10.99
2022-12-23T10:36:22.139Z,11.04
2022-12-23T10:37:22.076Z,11.00
2022-12-23T10:38:22.045Z,11.00
2022-12-23T10:39:22.031Z,10.97
2022-12-23T10:40:22.051Z,10.94
2022-12-23T10:41:22.001Z,11.00
2022-12-23T10:42:21.988Z,10.94
2022-12-23T10:43:21.987Z,10.96
2022-12-23T10:44:21.988Z,10.96
2022-12-23T10:45:21.977Z,10.96
2022-12-23T10:46:22.031Z,10.96
2022-12-23T10:47:21.923Z,10.99
2022-12-23T10:48:21.912Z,10.99
2022-12-23T10:49:21.910Z,11.00
2022-12-23T10:50:21.901Z,10.99
2022-12-23T10:51:21.943Z,10.94
2022-12-23T10:52:21.862Z,10.97
2022-12-23T10:53:21.851Z,10.96
2022-12-23T10:54:21.833Z,10.99
2022-12-23T10:55:21.836Z,10.99
2022-12-23T10:56:21.807Z,11.02
2022-12-23T10:57:21.795Z,11.07
2022-12-23T10:58:21.776Z,11.07
2022-12-23T10:59:21.776Z,11.02
2022-12-23T11:00:21.923Z,11.02
2022-12-23T11:01:27.162Z,11.00
2022-12-23T11:02:22.982Z,11.04
2022-12-23T11:03:21.837Z,11.10
2022-12-23T11:04:21.700Z,11.08
2022-12-23T11:05:21.704Z,11.07
2022-12-23T11:06:21.687Z,11.08
2022-12-23T11:08:21.649Z,11.11
2022-12-23T11:09:21.651Z,11.07
2022-12-23T11:10:21.625Z,11.05
2022-12-23T11:11:21.625Z,11.07
2022-12-23T11:12:21.596Z,11.08
2022-12-23T11:13:21.582Z,11.07
2022-12-23T11:14:21.562Z,11.08
2022-12-23T11:15:21.560Z,11.00
2022-12-23T11:16:21.642Z,11.00
2022-12-23T11:17:21.535Z,10.97
2022-12-23T11:18:21.535Z,10.99
2022-12-23T11:19:21.499Z,11.00
2022-12-23T11:20:21.486Z,11.00
2022-12-23T11:21:21.497Z,10.96
2022-12-23T11:22:21.466Z,11.02
2022-12-23T11:23:21.448Z,11.05
2022-12-23T11:24:21.433Z,11.05
2022-12-23T11:25:21.421Z,11.05
2022-12-23T11:26:21.425Z,10.99
2022-12-23T11:27:21.398Z,10.99
2022-12-23T11:28:21.375Z,10.97
2022-12-23T11:29:21.365Z,10.99
2022-12-23T11:30:21.370Z,10.99
2022-12-23T11:31:21.423Z,10.97
2022-12-23T11:32:21.346Z,10.97
2022-12-23T11:33:21.322Z,10.96
2022-12-23T11:34:21.296Z,10.96
2022-12-23T11:35:21.356Z,10.94
2022-12-23T11:36:21.288Z,10.97
2022-12-23T11:37:21.292Z,10.96
2022-12-23T11:38:21.248Z,10.96
2022-12-23T11:39:21.234Z,10.97
2022-12-23T11:40:21.219Z,10.97
2022-12-23T11:41:21.237Z,10.90
2022-12-23T11:42:21.188Z,10.96
2022-12-23T11:43:21.185Z,10.99
2022-12-23T11:44:21.166Z,10.92
2022-12-23T11:45:21.151Z,10.92
2022-12-23T11:46:21.210Z,10.93
2022-12-23T11:47:21.126Z,10.93
2022-12-23T11:48:21.138Z,10.92
2022-12-23T11:49:21.123Z,10.93
2022-12-23T11:50:21.092Z,10.92
2022-12-23T11:51:21.098Z,10.92
2022-12-23T11:52:21.058Z,10.96
2022-12-23T11:53:21.047Z,10.94
2022-12-23T11:54:21.028Z,10.94
2022-12-23T11:55:21.019Z,10.94
2022-12-23T11:56:21.087Z,10.96
2022-12-23T11:57:21.015Z,10.96
2022-12-23T11:58:21.012Z,10.94
2022-12-23T11:59:20.963Z,10.99
2022-12-23T12:00:20.950Z,11.02
2022-12-23T12:01:20.936Z,10.97
2022-12-23T12:02:21.008Z,10.97
2022-12-23T12:03:20.945Z,11.00
2022-12-23T12:04:20.919Z,10.93
2022-12-23T12:05:20.884Z,10.97
2022-12-23T12:06:20.874Z,10.97
2022-12-23T12:07:20.881Z,10.93
2022-12-23T12:08:20.870Z,10.97
2022-12-23T12:09:20.840Z,10.96
2022-12-23T12:10:20.820Z,10.97
2022-12-23T12:11:20.807Z,10.97
2022-12-23T12:12:20.804Z,10.99
2022-12-23T12:13:20.979Z,10.97
2022-12-23T12:14:20.764Z,11.00
2022-12-23T12:15:20.752Z,11.04
2022-12-23T12:16:20.763Z,11.00
2022-12-23T12:17:20.735Z,10.97
2022-12-23T12:18:20.712Z,10.97
2022-12-23T12:19:20.713Z,10.99
2022-12-23T12:20:20.708Z,11.00
2022-12-23T12:21:20.676Z,10.97
2022-12-23T12:22:20.669Z,11.02
2022-12-23T12:23:20.647Z,11.04
2022-12-23T12:24:20.626Z,10.99
2022-12-23T12:25:20.627Z,11.00
2022-12-23T12:26:20.601Z,11.04
2022-12-23T12:27:20.616Z,11.08
2022-12-23T12:28:20.580Z,11.04
2022-12-23T12:29:20.577Z,11.02
2022-12-23T12:30:20.556Z,11.02
2022-12-23T12:31:20.634Z,10.99
2022-12-23T12:32:20.548Z,11.04
2022-12-23T12:33:20.517Z,11.00
2022-12-23T12:34:20.496Z,11.00
2022-12-23T12:35:20.481Z,11.05
2022-12-23T12:36:20.551Z,11.04
2022-12-23T12:37:20.475Z,11.05
2022-12-23T12:38:20.465Z,11.05
2022-12-23T12:39:20.434Z,11.05
2022-12-23T12:40:20.417Z,11.02
2022-12-23T12:41:20.405Z,11.04
2022-12-23T12:42:20.406Z,11.02
2022-12-23T12:43:20.378Z,11.08
2022-12-23T12:44:20.358Z,11.07
2022-12-23T12:45:20.348Z,11.02
2022-12-23T12:46:20.436Z,11.02
2022-12-23T12:48:20.310Z,11.04
2022-12-23T12:49:20.296Z,11.04
2022-12-23T12:50:20.296Z,10.97
2022-12-23T12:51:20.270Z,10.97
2022-12-23T12:52:20.289Z,10.99
2022-12-23T12:53:20.241Z,11.00
2022-12-23T12:54:20.225Z,11.02
2022-12-23T12:55:20.218Z,11.02
2022-12-23T12:56:20.218Z,11.02
2022-12-23T12:57:20.225Z,11.04
2022-12-23T12:58:20.174Z,11.02
2022-12-23T12:59:20.183Z,11.05
2022-12-23T13:00:20.155Z,11.04
2022-12-23T13:01:20.185Z,11.10
2022-12-23T13:02:20.227Z,11.12
2022-12-23T13:03:20.150Z,11.14
2022-12-23T13:04:20.113Z,11.11